Guayama, PR (00785)

12:48 PM AST on February 12, 2016 (GMT -0400)
tikolj | | Change Station
CLOSE
Current Station
Personal Weather Station
Location: Arroyo,
Elevation: 30 ft
Nearby Weather Stations

Elev 30 ft 17.97 °N, 66.06 °W | Updated 7 minutes ago

Scattered Clouds
Scattered Clouds
89.6 °F
Feels Like 100 °F
N
6.8
Wind Variable Wind from SSE

Today
High -- | Low -- °F
--% Chance of Precip.
Yesterday
High -- | Low -- °F
Precip. -- in
Pressure 30.13 in
Visibility 10.0 miles
Clouds Few 2600 ft
Scattered Clouds 3500 ft
Heat Index 100 °F
Dew Point 75 °F
Humidity 62%
Rainfall 0.02 in
Snow Depth Not available.
6:53 AM 6:24 PM
Waxing Crescent, 22% visible
METAR TJSJ 121556Z 07013KT 10SM FEW026 SCT035 28/20 A3013 RMK AO2 SLP202 VCSH N T02780200
Pressure 30.13 in
Visibility 10.0 miles
Clouds Few 2600 ft
Scattered Clouds 3500 ft
Heat Index 100 °F
Dew Point 75 °F
Humidity 62%
Rainfall 0.02 in
Snow Depth Not available.
6:53 AM 6:24 PM
Waxing Crescent, 22% visible
METAR TJSJ 121556Z 07013KT 10SM FEW026 SCT035 28/20 A3013 RMK AO2 SLP202 VCSH N T02780200

10-Day Weather Forecast

Almanac

Astronomy

Feb. 12, 2016 Rise Set
Actual Time
Civil Twilight
Nautical Twilight
Astronomical Twilight
Moon
Length of Visible Light
Length of Day
Tomorrow will be .
, % of the Moon is Illuminated

Today's Extremes

State Highs State Lows

Community

WunderPhotos

Upload Photos

1,892,354 photos uploaded!

WunderBlog® & News

Nearby

Air Quality

  Air Quality AQ Index Pollutant
Not available.

Snow Depth

Station Depth Elevation

Earthquake Activity

City Distance Mag. Time & Date
Minimum magnitude displayed is 2.5.

Coastal Water Temperatures

Place Temperature

Stations

Nearby Weather Stations

Station Location Temp. Windchill Dew Point Humidity Wind Precip. Elev Updated Type
                   

Watches & Warnings

There are currently no watches in effect.